Time;durP1;ratioP1;P1;durP2;ratioP2;P2;SDS_P1;SDS_P2;PMS_P1;PMS_P2;Temp;Humidity;BMP_temperature;BMP_pressure;BME280_temperature;BME280_humidity;BME280_pressure;Samples;Min_cycle;Max_cycle;Signal;HPM_P1;HPM_P2
2021/01/02 00:00:45;;;;;;;;;;;5.00;80.70;;;;;;4915685;28;19934;-45
2021/01/02 00:03:32;;;;;;;;;;;5.00;80.60;;;;;;4907657;28;20076;-42
2021/01/02 00:06:09;;;;;;;;;;;5.00;80.50;;;;;;4912014;28;20056;-44
2021/01/02 00:08:38;;;;;;;;;;;5.00;80.40;;;;;;4914063;28;20036;-44
2021/01/02 00:11:23;;;;;;;;;;;5.00;80.50;;;;;;4914740;28;19932;-45
2021/01/02 00:14:08;;;;;;;;;;;5.00;80.50;;;;;;4904398;28;20431;-46
2021/01/02 00:16:44;;;;;;;;;;;5.00;80.40;;;;;;4902670;28;20021;-45
2021/01/02 00:19:29;;;;;;;;;;;5.00;80.30;;;;;;4906873;28;20024;-44
2021/01/02 00:22:00;;;;;;;;;;;5.00;80.20;;;;;;4926408;28;19934;-46
2021/01/02 00:24:33;;;;;;;;;;;5.00;80.20;;;;;;4910946;28;19938;-46
2021/01/02 00:27:08;;;;;;;;;;;5.00;80.10;;;;;;4906043;28;19933;-43
2021/01/02 00:29:54;;;;;;;;;;;5.00;80.10;;;;;;4910857;28;19934;-47
2021/01/02 00:32:37;;;;;;;;;;;5.00;80.20;;;;;;4910031;28;19960;-46
2021/01/02 00:35:06;;;;;;;;;;;5.00;80.20;;;;;;4912703;28;19941;-47
2021/01/02 00:37:40;;;;;;;;;;;5.00;80.20;;;;;;4910130;28;20024;-47
2021/01/02 00:40:17;;;;;;;;;;;4.90;80.30;;;;;;4910086;28;19934;-43
2021/01/02 00:42:49;;;;;;;;;;;4.90;80.20;;;;;;4909023;28;19930;-43
2021/01/02 00:45:17;;;;;;;;;;;4.90;80.10;;;;;;4904638;28;19934;-44
2021/01/02 00:47:43;;;;;;;;;;;4.90;80.20;;;;;;4902267;28;20363;-43
2021/01/02 00:50:11;;;;;;;;;;;4.90;80.30;;;;;;4914162;28;20035;-44
2021/01/02 00:52:37;;;;;;;;;;;4.90;80.40;;;;;;4912408;28;20073;-44
2021/01/02 00:55:13;;;;;;;;;;;4.90;80.50;;;;;;4909591;28;19942;-43
2021/01/02 00:57:51;;;;;;;;;;;4.90;80.50;;;;;;4911501;28;20077;-42
2021/01/02 01:00:18;;;;;;;;;;;4.90;80.50;;;;;;4912829;28;20017;-46
2021/01/02 01:02:55;;;;;;;;;;;4.80;80.60;;;;;;4910189;28;20371;-42
2021/01/02 01:05:23;;;;;;;;;;;4.90;80.60;;;;;;4913533;28;20003;-45
2021/01/02 01:07:53;;;;;;;;;;;4.80;80.50;;;;;;4908405;28;19941;-44
2021/01/02 01:10:23;;;;;;;;;;;4.80;80.60;;;;;;4912387;28;20382;-44
2021/01/02 01:13:15;;;;;;;;;;;4.80;80.50;;;;;;4910389;28;20342;-42
2021/01/02 01:15:44;;;;;;;;;;;4.80;80.50;;;;;;4908806;28;20378;-42
2021/01/02 01:18:16;;;;;;;;;;;4.80;80.50;;;;;;4913200;28;19930;-47
2021/01/02 01:20:44;;;;;;;;;;;4.80;80.50;;;;;;4913801;28;19930;-43
2021/01/02 01:23:17;;;;;;;;;;;4.80;80.50;;;;;;4920659;28;19973;-46
2021/01/02 01:25:49;;;;;;;;;;;4.80;80.50;;;;;;4910450;28;19937;-46
2021/01/02 01:28:17;;;;;;;;;;;4.90;80.40;;;;;;4911100;28;19937;-45
2021/01/02 01:30:46;;;;;;;;;;;4.90;80.30;;;;;;4911482;28;19941;-45
2021/01/02 01:33:19;;;;;;;;;;;4.80;80.40;;;;;;4907246;28;19942;-44
2021/01/02 01:35:48;;;;;;;;;;;4.80;80.40;;;;;;4910490;28;19930;-44
2021/01/02 01:38:15;;;;;;;;;;;4.80;80.40;;;;;;4911005;28;20297;-43
2021/01/02 01:40:43;;;;;;;;;;;4.80;80.40;;;;;;4909876;28;19933;-45
2021/01/02 01:43:21;;;;;;;;;;;4.80;80.40;;;;;;4909190;28;20140;-45
2021/01/02 01:46:10;;;;;;;;;;;4.80;80.40;;;;;;4904762;28;20405;-44
2021/01/02 01:49:03;;;;;;;;;;;4.80;80.40;;;;;;4914117;28;20286;-46
2021/01/02 01:51:35;;;;;;;;;;;4.90;80.40;;;;;;4909697;28;19930;-44
2021/01/02 01:54:10;;;;;;;;;;;4.90;80.30;;;;;;4908015;28;20012;-45
2021/01/02 01:56:57;;;;;;;;;;;4.90;80.30;;;;;;4910436;28;20939;-45
2021/01/02 01:59:28;;;;;;;;;;;4.90;80.10;;;;;;4909790;28;19934;-46
2021/01/02 02:01:57;;;;;;;;;;;4.90;80.00;;;;;;4910851;28;20043;-45
2021/01/02 02:04:43;;;;;;;;;;;4.90;80.00;;;;;;4908137;28;20291;-46
2021/01/02 02:07:14;;;;;;;;;;;4.90;80.10;;;;;;4910444;28;19946;-45
2021/01/02 02:09:41;;;;;;;;;;;4.90;80.30;;;;;;4913829;28;19934;-43
2021/01/02 02:12:14;;;;;;;;;;;4.90;80.30;;;;;;4906721;28;20054;-46
2021/01/02 02:14:49;;;;;;;;;;;4.90;80.30;;;;;;4908696;28;19936;-44
2021/01/02 02:17:17;;;;;;;;;;;4.90;80.40;;;;;;4907128;28;19949;-45
2021/01/02 02:19:50;;;;;;;;;;;4.90;80.40;;;;;;4909175;28;19934;-45
2021/01/02 02:22:20;;;;;;;;;;;4.90;80.40;;;;;;4910436;28;19927;-46
2021/01/02 02:24:48;;;;;;;;;;;4.90;80.30;;;;;;4907567;28;19930;-44
2021/01/02 02:27:14;;;;;;;;;;;4.90;80.30;;;;;;4910599;28;20575;-47
2021/01/02 02:30:06;;;;;;;;;;;4.90;80.30;;;;;;4914728;28;20589;-43
2021/01/02 02:32:35;;;;;;;;;;;4.90;80.30;;;;;;4901880;28;19934;-44
2021/01/02 02:35:05;;;;;;;;;;;4.90;80.40;;;;;;4911660;28;19934;-43
2021/01/02 02:37:32;;;;;;;;;;;4.90;80.40;;;;;;4909366;28;19941;-47
2021/01/02 02:39:58;;;;;;;;;;;4.80;80.40;;;;;;4908025;28;19926;-43
2021/01/02 02:42:29;;;;;;;;;;;4.80;80.50;;;;;;4914140;28;19950;-42
2021/01/02 02:44:57;;;;;;;;;;;4.80;80.50;;;;;;4913942;28;19934;-43
2021/01/02 02:47:27;;;;;;;;;;;4.80;80.50;;;;;;4907846;28;19966;-46
2021/01/02 02:49:56;;;;;;;;;;;4.80;80.50;;;;;;4911080;28;19930;-46
2021/01/02 02:52:30;;;;;;;;;;;4.80;80.50;;;;;;4908650;28;19930;-47
2021/01/02 02:54:58;;;;;;;;;;;4.80;80.40;;;;;;4908374;28;20446;-46
2021/01/02 02:57:28;;;;;;;;;;;4.80;80.40;;;;;;4910927;28;19977;-43
2021/01/02 02:59:54;;;;;;;;;;;4.80;80.20;;;;;;4920305;28;19941;-45
2021/01/02 03:02:21;;;;;;;;;;;4.80;80.20;;;;;;4898424;28;19934;-44
2021/01/02 03:04:47;;;;;;;;;;;4.80;80.10;;;;;;4899014;28;20008;-46
2021/01/02 03:07:14;;;;;;;;;;;4.80;80.10;;;;;;4910342;28;20275;-44
2021/01/02 03:09:42;;;;;;;;;;;4.80;80.00;;;;;;4910559;28;20414;-46
2021/01/02 03:12:09;;;;;;;;;;;4.80;80.00;;;;;;4922366;28;19926;-45
2021/01/02 03:14:35;;;;;;;;;;;4.80;80.10;;;;;;4909064;28;19941;-45
2021/01/02 03:17:01;;;;;;;;;;;4.80;80.10;;;;;;4912242;28;19937;-44
2021/01/02 03:19:27;;;;;;;;;;;4.80;80.10;;;;;;4905827;28;21274;-46
2021/01/02 03:21:54;;;;;;;;;;;4.80;80.20;;;;;;4914704;28;19933;-43
2021/01/02 03:24:23;;;;;;;;;;;4.80;80.20;;;;;;4916292;28;19926;-43
2021/01/02 03:26:49;;;;;;;;;;;4.80;80.10;;;;;;4912094;28;19937;-45
2021/01/02 03:29:15;;;;;;;;;;;4.80;80.10;;;;;;4915368;28;20026;-44
2021/01/02 03:31:42;;;;;;;;;;;4.80;80.00;;;;;;4907398;28;19953;-45
2021/01/02 03:34:09;;;;;;;;;;;4.80;79.90;;;;;;4917683;28;19997;-45
2021/01/02 03:36:35;;;;;;;;;;;4.80;79.90;;;;;;4911754;28;19926;-44
2021/01/02 03:39:02;;;;;;;;;;;4.80;79.80;;;;;;4911614;28;19934;-45
2021/01/02 03:41:29;;;;;;;;;;;4.80;79.70;;;;;;4914226;28;19934;-44
2021/01/02 03:43:55;;;;;;;;;;;4.80;79.70;;;;;;4917068;28;19930;-44
2021/01/02 03:46:29;;;;;;;;;;;4.80;79.70;;;;;;4922254;28;20008;-46
2021/01/02 03:48:55;;;;;;;;;;;4.80;79.70;;;;;;4908748;28;20038;-43
2021/01/02 03:51:23;;;;;;;;;;;4.80;79.70;;;;;;4908653;28;20418;-44
2021/01/02 03:53:50;;;;;;;;;;;4.80;79.70;;;;;;4914761;28;20020;-46
2021/01/02 03:56:16;;;;;;;;;;;4.80;79.70;;;;;;4932078;28;20438;-43
2021/01/02 03:58:42;;;;;;;;;;;4.80;79.70;;;;;;4915664;28;19930;-46
2021/01/02 04:01:11;;;;;;;;;;;4.80;79.70;;;;;;4912815;28;19934;-45
2021/01/02 04:03:37;;;;;;;;;;;4.80;79.60;;;;;;4906215;28;20405;-43
2021/01/02 04:06:04;;;;;;;;;;;4.80;79.50;;;;;;4917229;28;19926;-43
2021/01/02 04:08:30;;;;;;;;;;;4.80;79.60;;;;;;4911828;28;20061;-45
2021/01/02 04:10:56;;;;;;;;;;;4.80;79.60;;;;;;4911121;28;19941;-45
2021/01/02 04:13:24;;;;;;;;;;;4.80;79.50;;;;;;4916735;28;19934;-45
2021/01/02 04:15:52;;;;;;;;;;;4.80;79.50;;;;;;4916164;28;20008;-47
2021/01/02 04:18:20;;;;;;;;;;;4.80;79.40;;;;;;4919248;28;19948;-46
2021/01/02 04:20:48;;;;;;;;;;;4.80;79.40;;;;;;4913709;28;19926;-47
2021/01/02 04:23:14;;;;;;;;;;;4.80;79.40;;;;;;4910133;28;21305;-42
2021/01/02 04:25:42;;;;;;;;;;;4.80;79.50;;;;;;4913408;28;19936;-44
2021/01/02 04:28:10;;;;;;;;;;;4.80;79.50;;;;;;4914290;28;19927;-43
2021/01/02 04:30:39;;;;;;;;;;;4.80;79.50;;;;;;4917389;28;20289;-43
2021/01/02 04:33:05;;;;;;;;;;;4.80;79.50;;;;;;4914938;28;19937;-46
2021/01/02 04:35:32;;;;;;;;;;;4.80;79.50;;;;;;4918241;28;19934;-44
2021/01/02 04:38:01;;;;;;;;;;;4.80;79.30;;;;;;4918914;28;19926;-44
2021/01/02 04:40:28;;;;;;;;;;;4.80;79.10;;;;;;4911944;28;19933;-44
2021/01/02 04:42:55;;;;;;;;;;;4.80;79.10;;;;;;4909079;28;19934;-45
2021/01/02 04:45:21;;;;;;;;;;;4.80;79.10;;;;;;4916649;28;19940;-44
2021/01/02 04:47:48;;;;;;;;;;;4.80;79.00;;;;;;4914946;28;20351;-44
2021/01/02 04:50:14;;;;;;;;;;;4.80;79.00;;;;;;4914008;28;20399;-43
2021/01/02 04:52:41;;;;;;;;;;;4.80;79.10;;;;;;4908045;28;19974;-43
2021/01/02 04:55:08;;;;;;;;;;;4.80;79.20;;;;;;4911452;28;19937;-43
2021/01/02 04:57:35;;;;;;;;;;;4.80;79.20;;;;;;4916418;28;20424;-46
2021/01/02 05:00:03;;;;;;;;;;;4.80;79.20;;;;;;4912561;28;19968;-45
2021/01/02 05:02:32;;;;;;;;;;;4.80;79.20;;;;;;4911001;28;19937;-45
2021/01/02 05:04:58;;;;;;;;;;;4.80;79.20;;;;;;4911523;28;19949;-43
2021/01/02 05:07:31;;;;;;;;;;;4.80;79.20;;;;;;4910279;28;19937;-44
2021/01/02 05:09:58;;;;;;;;;;;4.80;79.00;;;;;;4928514;28;20001;-45
2021/01/02 05:12:25;;;;;;;;;;;4.70;78.90;;;;;;4909215;28;20374;-43
2021/01/02 05:14:56;;;;;;;;;;;4.70;79.10;;;;;;4913969;28;19930;-44
2021/01/02 05:17:26;;;;;;;;;;;4.70;79.30;;;;;;4912391;28;20411;-45
2021/01/02 05:20:02;;;;;;;;;;;4.70;79.50;;;;;;4910603;28;19934;-44
2021/01/02 05:22:29;;;;;;;;;;;4.70;79.50;;;;;;4904092;28;19933;-44
2021/01/02 05:25:17;;;;;;;;;;;4.70;79.60;;;;;;4910998;28;20293;-46
2021/01/02 05:27:48;;;;;;;;;;;4.70;79.70;;;;;;4911450;28;19941;-45
2021/01/02 05:30:19;;;;;;;;;;;4.70;79.80;;;;;;4908501;28;19934;-45
2021/01/02 05:32:59;;;;;;;;;;;4.70;79.80;;;;;;4903832;28;19939;-44
2021/01/02 05:35:45;;;;;;;;;;;4.70;79.80;;;;;;4923986;28;19934;-45
2021/01/02 05:38:17;;;;;;;;;;;4.70;79.70;;;;;;4911304;28;20007;-41
2021/01/02 05:40:45;;;;;;;;;;;4.70;79.70;;;;;;4909220;28;19934;-44
2021/01/02 05:43:12;;;;;;;;;;;4.70;79.70;;;;;;4908735;28;19933;-44
2021/01/02 05:45:39;;;;;;;;;;;4.70;79.80;;;;;;4908656;28;20021;-43
2021/01/02 05:48:11;;;;;;;;;;;4.70;79.80;;;;;;4912927;28;20263;-46
2021/01/02 05:50:42;;;;;;;;;;;4.70;79.80;;;;;;4927181;28;20405;-46
2021/01/02 05:53:18;;;;;;;;;;;4.70;79.80;;;;;;4907358;28;19933;-46
2021/01/02 05:55:45;;;;;;;;;;;4.70;79.80;;;;;;4913277;28;19926;-46
2021/01/02 05:58:14;;;;;;;;;;;4.70;79.80;;;;;;4910875;28;22479;-47
2021/01/02 06:00:44;;;;;;;;;;;4.70;79.90;;;;;;4909971;28;22609;-45
2021/01/02 06:03:31;;;;;;;;;;;4.70;79.90;;;;;;4907600;28;19936;-45
2021/01/02 06:06:03;;;;;;;;;;;4.70;79.90;;;;;;4911442;28;19956;-44
2021/01/02 06:08:36;;;;;;;;;;;4.70;80.00;;;;;;4909540;28;20564;-44
2021/01/02 06:11:05;;;;;;;;;;;4.70;79.90;;;;;;4914046;28;19926;-43
2021/01/02 06:13:33;;;;;;;;;;;4.70;80.00;;;;;;4908174;28;19931;-44
2021/01/02 06:16:00;;;;;;;;;;;4.70;80.10;;;;;;4909886;28;20950;-45
2021/01/02 06:18:27;;;;;;;;;;;4.70;80.00;;;;;;4909418;28;19926;-45
2021/01/02 06:20:59;;;;;;;;;;;4.70;80.00;;;;;;4905269;28;21548;-46
2021/01/02 06:23:26;;;;;;;;;;;4.70;79.90;;;;;;4911686;28;20170;-44
2021/01/02 06:25:54;;;;;;;;;;;4.70;80.10;;;;;;4917586;28;20341;-46
2021/01/02 06:28:21;;;;;;;;;;;4.70;80.20;;;;;;4908723;28;20025;-47
2021/01/02 06:30:48;;;;;;;;;;;4.70;80.30;;;;;;4911869;28;20979;-45
2021/01/02 06:33:15;;;;;;;;;;;4.70;80.40;;;;;;4905759;28;19930;-45
2021/01/02 06:35:41;;;;;;;;;;;4.60;80.30;;;;;;4917388;28;20300;-46
2021/01/02 06:38:11;;;;;;;;;;;4.50;80.20;;;;;;4910248;28;19930;-47
2021/01/02 06:40:37;;;;;;;;;;;4.50;80.60;;;;;;4909195;28;19930;-45
2021/01/02 06:43:05;;;;;;;;;;;4.50;80.60;;;;;;4910573;28;22673;-43
2021/01/02 06:45:37;;;;;;;;;;;4.40;80.70;;;;;;4906886;28;19981;-44
2021/01/02 06:48:15;;;;;;;;;;;4.40;80.70;;;;;;4909436;28;20028;-44
2021/01/02 06:50:48;;;;;;;;;;;4.50;80.60;;;;;;4927296;28;19930;-43
2021/01/02 06:53:27;;;;;;;;;;;4.50;80.50;;;;;;4916735;28;19937;-44
2021/01/02 06:55:59;;;;;;;;;;;4.50;80.50;;;;;;4912406;28;23600;-45
2021/01/02 06:58:36;;;;;;;;;;;4.50;80.70;;;;;;4911826;28;22472;-44
2021/01/02 07:01:07;;;;;;;;;;;4.50;80.60;;;;;;4910936;28;20364;-43
2021/01/02 07:03:39;;;;;;;;;;;4.50;80.70;;;;;;4910431;28;19926;-43
2021/01/02 07:06:18;;;;;;;;;;;4.50;80.80;;;;;;4911425;28;19926;-44
2021/01/02 07:08:49;;;;;;;;;;;4.50;80.90;;;;;;4915338;28;19937;-44
2021/01/02 07:11:21;;;;;;;;;;;4.50;81.00;;;;;;4914815;28;19933;-43
2021/01/02 07:13:50;;;;;;;;;;;4.60;81.00;;;;;;4912773;28;19940;-45
2021/01/02 07:16:34;;;;;;;;;;;4.60;81.00;;;;;;4911238;28;19990;-44
2021/01/02 07:19:04;;;;;;;;;;;4.60;81.00;;;;;;4912535;28;20417;-46
2021/01/02 07:21:38;;;;;;;;;;;4.60;81.00;;;;;;4915601;28;19932;-42
2021/01/02 07:24:20;;;;;;;;;;;4.60;81.00;;;;;;4910183;28;19934;-46
2021/01/02 07:26:46;;;;;;;;;;;4.60;81.10;;;;;;4912569;28;19930;-45
2021/01/02 07:29:17;;;;;;;;;;;4.60;81.10;;;;;;4913799;28;19934;-45
2021/01/02 07:31:46;;;;;;;;;;;4.60;81.10;;;;;;4915601;28;19930;-42
2021/01/02 07:34:21;;;;;;;;;;;4.60;81.10;;;;;;4914439;28;19936;-43
2021/01/02 07:36:48;;;;;;;;;;;4.60;81.00;;;;;;4913522;28;19926;-44
2021/01/02 07:39:15;;;;;;;;;;;4.60;81.00;;;;;;4911854;28;19938;-44
2021/01/02 07:41:41;;;;;;;;;;;4.60;81.10;;;;;;4913134;28;19937;-45
2021/01/02 07:44:11;;;;;;;;;;;4.60;81.10;;;;;;4916077;28;19941;-45
2021/01/02 07:46:41;;;;;;;;;;;4.60;81.10;;;;;;4914544;28;19930;-45
2021/01/02 07:49:08;;;;;;;;;;;4.60;81.00;;;;;;4915378;28;20073;-47
2021/01/02 07:51:35;;;;;;;;;;;4.60;81.00;;;;;;4916523;28;19940;-44
2021/01/02 07:54:01;;;;;;;;;;;4.60;81.10;;;;;;4912657;28;19933;-45
2021/01/02 07:56:34;;;;;;;;;;;4.60;81.20;;;;;;4916767;28;19933;-46
2021/01/02 07:59:21;;;;;;;;;;;4.60;81.10;;;;;;4915012;28;19937;-45
2021/01/02 08:01:52;;;;;;;;;;;4.60;80.90;;;;;;4915699;28;20042;-44
2021/01/02 08:04:19;;;;;;;;;;;4.60;80.80;;;;;;4912228;28;19937;-46
2021/01/02 08:06:46;;;;;;;;;;;4.60;80.80;;;;;;4908406;28;20127;-44
2021/01/02 08:09:13;;;;;;;;;;;4.60;80.90;;;;;;4913990;28;19930;-46
2021/01/02 08:11:54;;;;;;;;;;;4.60;80.70;;;;;;4912728;28;20291;-44
2021/01/02 08:14:21;;;;;;;;;;;4.60;80.80;;;;;;4925757;28;20260;-46
2021/01/02 08:16:58;;;;;;;;;;;4.60;80.90;;;;;;4914554;28;20002;-44
2021/01/02 08:19:25;;;;;;;;;;;4.60;80.90;;;;;;4912246;28;19934;-44
2021/01/02 08:21:51;;;;;;;;;;;4.60;80.90;;;;;;4908864;28;20100;-44
2021/01/02 08:24:18;;;;;;;;;;;4.60;81.00;;;;;;4914700;28;19932;-45
2021/01/02 08:26:44;;;;;;;;;;;4.60;81.00;;;;;;4917027;28;20354;-44
2021/01/02 08:29:10;;;;;;;;;;;4.70;80.60;;;;;;4907862;28;20034;-44
2021/01/02 08:31:40;;;;;;;;;;;4.60;80.60;;;;;;4907406;28;20196;-44
2021/01/02 08:34:10;;;;;;;;;;;4.70;80.60;;;;;;4906558;28;20294;-43
2021/01/02 08:36:42;;;;;;;;;;;4.70;80.50;;;;;;4909855;28;19942;-43
2021/01/02 08:39:09;;;;;;;;;;;4.70;80.30;;;;;;4910255;28;22087;-46
2021/01/02 08:41:36;;;;;;;;;;;4.70;80.20;;;;;;4907924;28;19926;-44
2021/01/02 08:44:03;;;;;;;;;;;4.70;80.20;;;;;;4908134;28;19988;-45
2021/01/02 08:46:29;;;;;;;;;;;4.80;80.20;;;;;;4915116;28;20389;-44
2021/01/02 08:48:56;;;;;;;;;;;4.80;80.30;;;;;;4911586;28;19934;-43
2021/01/02 08:51:26;;;;;;;;;;;4.80;80.30;;;;;;4910244;28;19926;-44
2021/01/02 08:53:52;;;;;;;;;;;4.80;80.40;;;;;;4909325;28;19933;-45
2021/01/02 08:56:22;;;;;;;;;;;4.80;80.40;;;;;;4917708;28;19992;-47
2021/01/02 08:58:49;;;;;;;;;;;4.80;80.50;;;;;;4912835;28;19938;-46
2021/01/02 09:01:15;;;;;;;;;;;4.90;80.50;;;;;;4912939;28;23719;-43
2021/01/02 09:03:42;;;;;;;;;;;4.90;80.50;;;;;;4913743;28;19934;-45
2021/01/02 09:06:17;;;;;;;;;;;4.90;80.30;;;;;;4911670;28;19989;-44
2021/01/02 09:08:58;;;;;;;;;;;4.90;80.20;;;;;;4922864;28;20287;-42
2021/01/02 09:11:24;;;;;;;;;;;5.00;80.00;;;;;;4910878;28;20065;-43
2021/01/02 09:14:03;;;;;;;;;;;5.00;79.80;;;;;;4913797;28;21274;-43
2021/01/02 09:16:30;;;;;;;;;;;5.00;79.60;;;;;;4912452;28;19938;-45
2021/01/02 09:18:56;;;;;;;;;;;5.00;79.60;;;;;;4911319;28;19989;-45
2021/01/02 09:21:23;;;;;;;;;;;5.00;79.70;;;;;;4911075;28;20317;-43
2021/01/02 09:23:58;;;;;;;;;;;5.10;79.70;;;;;;4910428;28;19934;-43
2021/01/02 09:26:29;;;;;;;;;;;5.10;79.50;;;;;;4910657;28;19930;-45
2021/01/02 09:28:56;;;;;;;;;;;5.10;79.40;;;;;;4906163;28;19941;-45
2021/01/02 09:31:23;;;;;;;;;;;5.20;79.30;;;;;;4911210;28;19933;-46
2021/01/02 09:33:50;;;;;;;;;;;5.20;79.00;;;;;;4908558;28;20422;-44
2021/01/02 09:36:21;;;;;;;;;;;5.20;78.90;;;;;;4909356;28;19934;-45
2021/01/02 09:38:48;;;;;;;;;;;5.20;79.10;;;;;;4911331;28;19970;-44
2021/01/02 09:41:16;;;;;;;;;;;5.30;79.00;;;;;;4908169;28;19934;-43
2021/01/02 09:43:42;;;;;;;;;;;5.30;78.80;;;;;;4910634;28;20409;-42
2021/01/02 09:46:16;;;;;;;;;;;5.30;78.80;;;;;;4914436;28;19930;-45
2021/01/02 09:48:47;;;;;;;;;;;5.40;78.80;;;;;;4914075;28;20001;-45
2021/01/02 09:51:13;;;;;;;;;;;5.40;78.80;;;;;;4926038;28;19930;-42
2021/01/02 09:53:42;;;;;;;;;;;5.40;78.10;;;;;;4915267;28;19934;-45
2021/01/02 09:56:08;;;;;;;;;;;5.40;78.10;;;;;;4911932;28;19952;-45
2021/01/02 09:58:35;;;;;;;;;;;5.50;77.90;;;;;;4908390;28;20346;-43
2021/01/02 10:01:02;;;;;;;;;;;5.50;77.70;;;;;;4911018;28;20287;-44
2021/01/02 10:03:29;;;;;;;;;;;5.50;77.80;;;;;;4913419;28;19926;-43
2021/01/02 10:05:55;;;;;;;;;;;5.50;77.70;;;;;;4912375;28;19938;-44
2021/01/02 10:08:23;;;;;;;;;;;5.50;77.60;;;;;;4914037;28;19957;-42
2021/01/02 10:10:50;;;;;;;;;;;5.60;77.10;;;;;;4913083;28;19936;-45
2021/01/02 10:13:17;;;;;;;;;;;5.60;76.60;;;;;;4912550;28;19933;-43
2021/01/02 10:15:43;;;;;;;;;;;5.60;75.70;;;;;;4914091;28;19934;-46
2021/01/02 10:18:09;;;;;;;;;;;5.60;75.30;;;;;;4909783;28;19941;-42
2021/01/02 10:20:36;;;;;;;;;;;5.60;75.30;;;;;;4914681;28;19933;-45
2021/01/02 10:23:02;;;;;;;;;;;5.60;74.60;;;;;;4894907;28;19926;-46
2021/01/02 10:25:28;;;;;;;;;;;5.70;74.40;;;;;;4909481;28;19934;-45
2021/01/02 10:27:54;;;;;;;;;;;5.70;74.00;;;;;;4894222;28;22143;-44
2021/01/02 10:30:21;;;;;;;;;;;5.80;73.60;;;;;;4908103;28;19988;-43
2021/01/02 10:32:47;;;;;;;;;;;5.80;73.50;;;;;;4910098;28;19941;-44
2021/01/02 10:35:15;;;;;;;;;;;5.80;73.50;;;;;;4911367;28;19960;-42
2021/01/02 10:37:42;;;;;;;;;;;5.80;73.20;;;;;;4908578;28;19984;-47
2021/01/02 10:40:08;;;;;;;;;;;5.80;73.30;;;;;;4910907;28;19926;-45
2021/01/02 10:42:35;;;;;;;;;;;5.80;73.10;;;;;;4909861;28;19935;-45
2021/01/02 10:45:02;;;;;;;;;;;5.80;72.80;;;;;;4886430;28;21991;-43
2021/01/02 10:47:30;;;;;;;;;;;5.90;72.90;;;;;;4897876;28;19934;-44
2021/01/02 10:49:56;;;;;;;;;;;5.90;72.50;;;;;;4889897;28;22161;-43
2021/01/02 10:52:24;;;;;;;;;;;5.90;72.20;;;;;;4891697;28;20401;-45
2021/01/02 10:54:51;;;;;;;;;;;5.90;72.10;;;;;;4896746;28;19934;-43
2021/01/02 10:57:19;;;;;;;;;;;5.90;72.10;;;;;;4901545;28;19934;-46
2021/01/02 10:59:47;;;;;;;;;;;5.90;71.80;;;;;;4897114;28;19934;-46
2021/01/02 11:02:14;;;;;;;;;;;5.90;71.40;;;;;;4901735;28;20273;-45
2021/01/02 11:04:41;;;;;;;;;;;5.90;71.20;;;;;;4898869;28;21096;-43
2021/01/02 11:07:09;;;;;;;;;;;6.00;71.00;;;;;;4897055;28;19930;-46
2021/01/02 11:09:36;;;;;;;;;;;6.00;70.90;;;;;;4889818;28;19963;-45
2021/01/02 11:12:03;;;;;;;;;;;6.00;71.10;;;;;;4892069;28;20409;-45
2021/01/02 11:14:29;;;;;;;;;;;6.10;71.20;;;;;;4894129;28;20021;-45
2021/01/02 11:16:56;;;;;;;;;;;6.10;71.10;;;;;;4887636;28;19933;-46
2021/01/02 11:19:24;;;;;;;;;;;6.10;71.30;;;;;;4894763;28;20591;-46
2021/01/02 11:21:52;;;;;;;;;;;6.10;70.90;;;;;;4896716;28;19938;-45
2021/01/02 11:24:20;;;;;;;;;;;6.10;70.50;;;;;;4896192;28;20603;-46
2021/01/02 11:26:47;;;;;;;;;;;6.10;70.60;;;;;;4896211;28;20378;-43
2021/01/02 11:29:14;;;;;;;;;;;6.10;70.40;;;;;;4895640;28;20294;-43
2021/01/02 11:31:42;;;;;;;;;;;6.10;70.20;;;;;;4899410;28;19957;-46
2021/01/02 11:34:20;;;;;;;;;;;6.10;70.10;;;;;;4904662;28;19933;-44
2021/01/02 11:36:49;;;;;;;;;;;6.10;70.30;;;;;;4896461;28;20442;-44
2021/01/02 11:39:16;;;;;;;;;;;6.10;70.30;;;;;;4905156;28;20024;-45
2021/01/02 11:41:43;;;;;;;;;;;6.10;70.10;;;;;;4903442;28;19926;-46
2021/01/02 11:44:10;;;;;;;;;;;6.10;69.90;;;;;;4899268;28;20017;-43
2021/01/02 11:46:39;;;;;;;;;;;6.10;70.30;;;;;;4896589;28;20072;-46
2021/01/02 11:49:06;;;;;;;;;;;6.10;70.50;;;;;;4895562;28;21086;-43
2021/01/02 11:51:32;;;;;;;;;;;6.10;70.20;;;;;;4899363;28;20245;-43
2021/01/02 11:53:59;;;;;;;;;;;6.10;69.90;;;;;;4903005;28;19936;-43
2021/01/02 11:56:28;;;;;;;;;;;6.10;69.40;;;;;;4897821;28;19938;-44
2021/01/02 11:58:56;;;;;;;;;;;6.10;68.90;;;;;;4898473;28;19934;-46
2021/01/02 12:01:32;;;;;;;;;;;6.10;68.50;;;;;;4899428;28;20350;-43
2021/01/02 12:03:58;;;;;;;;;;;6.10;68.70;;;;;;4899317;28;19926;-45
2021/01/02 12:06:28;;;;;;;;;;;6.10;68.70;;;;;;4901800;28;21347;-46
2021/01/02 12:08:55;;;;;;;;;;;6.10;68.90;;;;;;4896231;28;19933;-46
2021/01/02 12:11:29;;;;;;;;;;;6.20;69.10;;;;;;4900969;28;19945;-44
2021/01/02 12:13:56;;;;;;;;;;;6.20;68.80;;;;;;4898673;28;19926;-46
2021/01/02 12:16:52;;;;;;;;;;;6.10;68.40;;;;;;4904075;28;19941;-43
2021/01/02 12:19:23;;;;;;;;;;;6.10;67.90;;;;;;4893449;28;19927;-43
2021/01/02 12:21:53;;;;;;;;;;;6.10;67.20;;;;;;4910793;28;19930;-44
2021/01/02 12:24:20;;;;;;;;;;;6.10;67.00;;;;;;4911230;28;19926;-45
2021/01/02 12:26:57;;;;;;;;;;;6.10;67.10;;;;;;4902912;28;19941;-46
2021/01/02 12:29:24;;;;;;;;;;;6.10;67.00;;;;;;4907533;28;20435;-44
2021/01/02 12:31:52;;;;;;;;;;;6.00;66.70;;;;;;4891469;28;19943;-45
2021/01/02 12:34:21;;;;;;;;;;;6.00;67.10;;;;;;4901089;28;19937;-46
2021/01/02 12:36:48;;;;;;;;;;;6.00;67.20;;;;;;4907886;28;19937;-45
2021/01/02 12:39:17;;;;;;;;;;;6.10;67.10;;;;;;4911092;28;19933;-46
2021/01/02 12:41:43;;;;;;;;;;;6.00;67.10;;;;;;4907007;28;19930;-44
2021/01/02 12:44:10;;;;;;;;;;;6.10;67.40;;;;;;4908567;28;20033;-45
2021/01/02 12:46:37;;;;;;;;;;;6.00;67.10;;;;;;4908776;28;20473;-42
2021/01/02 12:49:04;;;;;;;;;;;6.10;66.60;;;;;;4911037;28;19934;-47
2021/01/02 12:51:30;;;;;;;;;;;6.00;66.20;;;;;;4907681;28;19934;-45
2021/01/02 12:53:56;;;;;;;;;;;6.00;66.40;;;;;;4902327;28;22516;-44
2021/01/02 12:56:23;;;;;;;;;;;6.00;66.80;;;;;;4907309;28;19980;-46
2021/01/02 12:58:49;;;;;;;;;;;6.00;66.90;;;;;;4908191;28;20037;-45
2021/01/02 13:01:16;;;;;;;;;;;6.00;67.00;;;;;;4906805;28;20061;-44
2021/01/02 13:03:43;;;;;;;;;;;6.00;67.30;;;;;;4909890;28;19926;-45
2021/01/02 13:06:15;;;;;;;;;;;6.10;67.70;;;;;;4913608;28;19926;-44
2021/01/02 13:08:42;;;;;;;;;;;6.10;67.80;;;;;;4909471;28;19926;-45
2021/01/02 13:11:09;;;;;;;;;;;6.10;67.00;;;;;;4910033;28;20329;-45
2021/01/02 13:13:36;;;;;;;;;;;6.10;66.40;;;;;;4907637;28;20340;-45
2021/01/02 13:16:05;;;;;;;;;;;6.00;66.80;;;;;;4905785;28;20038;-44
2021/01/02 13:18:31;;;;;;;;;;;6.00;66.90;;;;;;4903957;28;19941;-44
2021/01/02 13:20:58;;;;;;;;;;;6.00;67.40;;;;;;4900991;28;20384;-43
2021/01/02 13:23:27;;;;;;;;;;;6.00;67.50;;;;;;4906183;28;19933;-45
2021/01/02 13:25:56;;;;;;;;;;;6.00;67.60;;;;;;4913627;28;20398;-46
2021/01/02 13:28:23;;;;;;;;;;;6.10;67.20;;;;;;4911995;28;19934;-45
2021/01/02 13:30:51;;;;;;;;;;;6.10;67.00;;;;;;4907652;28;20306;-45
2021/01/02 13:33:18;;;;;;;;;;;6.10;67.20;;;;;;4906079;28;19936;-46
2021/01/02 13:35:45;;;;;;;;;;;6.00;66.70;;;;;;4901448;28;19932;-44
2021/01/02 13:38:12;;;;;;;;;;;6.00;66.40;;;;;;4902727;28;20386;-43
2021/01/02 13:40:38;;;;;;;;;;;6.00;66.30;;;;;;4907651;28;19934;-43
2021/01/02 13:43:04;;;;;;;;;;;6.00;66.40;;;;;;4899189;28;20546;-46
2021/01/02 13:45:31;;;;;;;;;;;6.10;66.20;;;;;;4914016;28;19926;-43
2021/01/02 13:47:57;;;;;;;;;;;6.10;66.40;;;;;;4909287;28;20602;-43
2021/01/02 13:50:23;;;;;;;;;;;6.00;66.20;;;;;;4893840;28;20674;-44
2021/01/02 13:52:50;;;;;;;;;;;6.00;66.10;;;;;;4907213;28;19930;-45
2021/01/02 13:55:17;;;;;;;;;;;6.00;66.10;;;;;;4900418;28;19973;-46
2021/01/02 13:57:50;;;;;;;;;;;6.00;66.30;;;;;;4908478;28;19926;-47
2021/01/02 14:00:17;;;;;;;;;;;6.00;66.40;;;;;;4908487;28;22512;-45
2021/01/02 14:02:43;;;;;;;;;;;6.00;66.10;;;;;;4900126;28;19933;-45
2021/01/02 14:05:10;;;;;;;;;;;6.00;66.20;;;;;;4913072;28;20356;-46
2021/01/02 14:07:52;;;;;;;;;;;5.90;66.50;;;;;;4906665;28;19930;-46
2021/01/02 14:10:21;;;;;;;;;;;5.90;66.60;;;;;;4893310;28;20005;-45
2021/01/02 14:12:47;;;;;;;;;;;5.90;66.50;;;;;;4904250;28;20020;-46
2021/01/02 14:15:14;;;;;;;;;;;5.90;66.10;;;;;;4911961;28;19926;-44
2021/01/02 14:17:40;;;;;;;;;;;5.90;65.80;;;;;;4906151;28;19926;-45
2021/01/02 14:20:07;;;;;;;;;;;5.90;65.80;;;;;;4913413;28;20617;-44
2021/01/02 14:22:33;;;;;;;;;;;5.90;65.40;;;;;;4919981;28;20468;-45
2021/01/02 14:25:00;;;;;;;;;;;5.90;65.60;;;;;;4916139;28;19944;-42
2021/01/02 14:27:26;;;;;;;;;;;5.90;65.80;;;;;;4907188;28;19926;-46
2021/01/02 14:29:52;;;;;;;;;;;5.90;66.00;;;;;;4905612;28;20039;-46
2021/01/02 14:32:20;;;;;;;;;;;5.90;66.10;;;;;;4904556;28;19941;-45
2021/01/02 14:34:46;;;;;;;;;;;5.90;66.30;;;;;;4907348;28;19930;-46
2021/01/02 14:37:13;;;;;;;;;;;5.80;66.30;;;;;;4908836;28;19974;-45
2021/01/02 14:39:39;;;;;;;;;;;5.80;66.40;;;;;;4900396;28;20053;-44
2021/01/02 14:42:08;;;;;;;;;;;5.80;66.30;;;;;;4904419;28;20008;-46
2021/01/02 14:44:37;;;;;;;;;;;5.80;66.30;;;;;;4914236;28;19930;-45